createdAt,value
2019-02-22T00:00:46.707Z,60.01
2019-02-22T00:03:15.332Z,60.26
2019-02-22T00:05:44.148Z,60.45
2019-02-22T00:08:12.720Z,60.57
2019-02-22T00:10:41.285Z,60.51
2019-02-22T00:13:09.952Z,60.60
2019-02-22T00:15:38.679Z,60.73
2019-02-22T00:18:07.175Z,60.47
2019-02-22T00:20:35.781Z,60.64
2019-02-22T00:23:04.495Z,61.27
2019-02-22T00:25:33.119Z,61.34
2019-02-22T00:28:01.808Z,61.70
2019-02-22T00:30:30.374Z,62.04
2019-02-22T00:32:59.113Z,62.33
2019-02-22T00:35:27.813Z,62.79
2019-02-22T00:37:56.255Z,63.44
2019-02-22T00:40:24.899Z,63.83
2019-02-22T00:42:53.706Z,64.45
2019-02-22T00:45:22.197Z,64.75
2019-02-22T00:47:50.816Z,64.91
2019-02-22T00:50:19.493Z,64.94
2019-02-22T00:52:48.347Z,64.54
2019-02-22T00:55:16.895Z,64.29
2019-02-22T00:57:45.579Z,64.37
2019-02-22T01:00:14.673Z,64.44
2019-02-22T01:02:43.310Z,64.54
2019-02-22T01:05:12.000Z,64.77
2019-02-22T01:07:40.709Z,64.44
2019-02-22T01:10:09.339Z,64.36
2019-02-22T01:12:38.011Z,64.19
2019-02-22T01:15:07.028Z,63.77
2019-02-22T01:17:35.650Z,63.46
2019-02-22T01:20:05.108Z,63.45
2019-02-22T01:22:33.730Z,63.51
2019-02-22T01:25:02.354Z,63.10
2019-02-22T01:27:30.945Z,63.64
2019-02-22T01:29:59.436Z,63.97
2019-02-22T01:32:28.054Z,64.20
2019-02-22T01:34:56.963Z,64.53
2019-02-22T01:37:25.537Z,64.21
2019-02-22T01:39:54.959Z,64.78
2019-02-22T01:42:23.630Z,65.29
2019-02-22T01:44:52.181Z,65.53
2019-02-22T01:47:20.668Z,65.53
2019-02-22T01:49:49.441Z,65.60
2019-02-22T01:52:18.091Z,66.11
2019-02-22T01:54:46.705Z,66.53
2019-02-22T01:57:15.373Z,66.85
2019-02-22T01:59:44.349Z,66.94
2019-02-22T02:02:13.019Z,67.41
2019-02-22T02:04:41.644Z,67.43
2019-02-22T02:07:10.281Z,67.61
2019-02-22T02:09:38.841Z,67.89
2019-02-22T02:12:07.520Z,68.49
2019-02-22T02:14:36.085Z,68.89
2019-02-22T02:17:04.704Z,69.05
2019-02-22T02:19:33.319Z,68.96
2019-02-22T02:22:01.941Z,68.73
2019-02-22T02:24:30.574Z,69.24
2019-02-22T02:26:59.113Z,69.40
2019-02-22T02:29:27.696Z,69.35
2019-02-22T02:31:56.354Z,68.81
2019-02-22T02:34:25.141Z,68.93
2019-02-22T02:36:53.789Z,68.99
2019-02-22T02:39:22.340Z,68.77
2019-02-22T02:41:50.935Z,68.78
2019-02-22T02:44:19.497Z,68.95
2019-02-22T02:46:49.898Z,69.75
2019-02-22T02:49:18.583Z,70.69
2019-02-22T02:51:47.150Z,70.40
2019-02-22T02:54:15.709Z,70.40
2019-02-22T02:56:46.275Z,70.86
2019-02-22T02:59:14.661Z,71.53
2019-02-22T03:01:43.362Z,71.58
2019-02-22T03:04:11.971Z,71.01
2019-02-22T03:06:42.241Z,70.96
2019-02-22T03:09:10.795Z,71.25
2019-02-22T03:11:39.312Z,71.07
2019-02-22T03:14:07.944Z,70.47
2019-02-22T03:16:36.571Z,70.09
2019-02-22T03:19:05.481Z,69.77
2019-02-22T03:21:34.111Z,70.15
2019-02-22T03:24:02.670Z,70.65
2019-02-22T03:26:31.279Z,71.23
2019-02-22T03:28:59.827Z,71.15
2019-02-22T03:31:28.449Z,71.12
2019-02-22T03:33:57.069Z,71.04
2019-02-22T03:36:25.628Z,71.45
2019-02-22T03:38:54.194Z,71.42
2019-02-22T03:41:32.194Z,71.06
2019-02-22T03:43:53.136Z,71.26
2019-02-22T03:46:21.803Z,72.01
2019-02-22T03:48:50.458Z,72.62
2019-02-22T03:51:19.095Z,72.81
2019-02-22T03:53:48.954Z,73.06
2019-02-22T03:56:17.576Z,73.38
2019-02-22T03:58:46.210Z,73.83
2019-02-22T04:01:14.781Z,74.25
2019-02-22T04:03:43.656Z,74.71
2019-02-22T04:06:12.296Z,75.27
2019-02-22T04:08:40.871Z,75.04
2019-02-22T04:11:09.466Z,75.69
2019-02-22T04:13:38.090Z,76.55
2019-02-22T04:16:06.705Z,76.74
2019-02-22T04:18:35.667Z,76.80
2019-02-22T04:21:04.222Z,77.22
2019-02-22T04:23:32.785Z,76.84
2019-02-22T04:26:01.708Z,77.00
2019-02-22T04:28:30.340Z,77.26
2019-02-22T04:30:58.854Z,76.67
2019-02-22T04:33:27.452Z,76.54
2019-02-22T04:35:56.088Z,76.67
2019-02-22T04:38:24.664Z,77.21
2019-02-22T04:40:53.222Z,76.64
2019-02-22T04:43:21.778Z,76.68
2019-02-22T04:45:50.417Z,77.28
2019-02-22T04:48:19.103Z,77.20
2019-02-22T04:50:47.582Z,76.66
2019-02-22T04:53:16.129Z,76.41
2019-02-22T04:55:45.095Z,76.49
2019-02-22T04:58:13.667Z,76.00
2019-02-22T05:00:42.254Z,75.62
2019-02-22T05:03:10.927Z,74.96
2019-02-22T05:05:39.628Z,75.23
2019-02-22T05:08:08.216Z,75.83
2019-02-22T05:10:36.868Z,75.84
2019-02-22T05:13:05.526Z,76.12
2019-02-22T05:15:34.092Z,76.52
2019-02-22T05:18:02.700Z,76.29
2019-02-22T05:20:31.315Z,76.18
2019-02-22T05:23:03.783Z,76.00
2019-02-22T05:25:30.200Z,75.67
2019-02-22T05:28:01.504Z,75.51
2019-02-22T05:30:30.149Z,75.79
2019-02-22T05:32:58.777Z,75.65
2019-02-22T05:35:27.278Z,74.97
2019-02-22T05:37:55.832Z,74.83
2019-02-22T05:40:24.544Z,74.10
2019-02-22T05:42:53.099Z,73.52
2019-02-22T05:45:21.583Z,73.61
2019-02-22T05:47:50.183Z,73.44
2019-02-22T05:50:18.806Z,72.47
2019-02-22T05:52:47.395Z,72.74
2019-02-22T05:55:16.439Z,71.73
2019-02-22T05:57:44.998Z,71.93
2019-02-22T06:00:14.334Z,71.53
2019-02-22T06:02:43.014Z,71.21
2019-02-22T06:05:11.656Z,71.41
2019-02-22T06:07:40.286Z,71.30
2019-02-22T06:10:10.341Z,71.04
2019-02-22T06:12:38.967Z,71.18
2019-02-22T06:15:08.691Z,70.96
2019-02-22T06:17:37.370Z,70.74
2019-02-22T06:20:08.901Z,70.07
2019-02-22T06:22:37.456Z,69.59
2019-02-22T06:25:07.317Z,69.30
2019-02-22T06:27:35.930Z,68.93
2019-02-22T06:30:06.862Z,68.64
2019-02-22T06:32:35.725Z,68.86
2019-02-22T06:35:04.842Z,68.86
2019-02-22T06:37:33.426Z,68.86
2019-02-22T06:40:02.073Z,68.77
2019-02-22T06:42:30.637Z,68.69
2019-02-22T06:44:59.217Z,68.43
2019-02-22T06:47:27.807Z,69.12
2019-02-22T06:49:56.490Z,68.38
2019-02-22T06:52:25.129Z,67.65
2019-02-22T06:54:53.756Z,67.68
2019-02-22T06:57:22.333Z,67.59
2019-02-22T06:59:50.952Z,67.88
2019-02-22T07:02:19.932Z,67.67
2019-02-22T07:04:48.486Z,67.82
2019-02-22T07:07:17.185Z,68.46
2019-02-22T07:09:45.853Z,68.19
2019-02-22T07:12:25.364Z,66.92
2019-02-22T07:14:53.966Z,67.50
2019-02-22T07:17:22.516Z,67.97
2019-02-22T07:19:51.165Z,67.99
2019-02-22T07:22:19.854Z,68.62
2019-02-22T07:24:48.536Z,69.10
2019-02-22T07:27:17.182Z,69.57
2019-02-22T07:29:45.722Z,69.15
2019-02-22T07:32:14.287Z,69.52
2019-02-22T07:34:42.921Z,68.72
2019-02-22T07:37:11.778Z,69.04
2019-02-22T07:39:40.257Z,68.62
2019-02-22T07:42:08.821Z,68.85
2019-02-22T07:44:37.754Z,68.56
2019-02-22T07:47:06.317Z,68.35
2019-02-22T07:49:34.820Z,68.29
2019-02-22T07:52:03.595Z,68.00
2019-02-22T07:54:32.158Z,67.79
2019-02-22T07:57:00.789Z,68.09
2019-02-22T07:59:29.443Z,68.04
2019-02-22T08:01:58.008Z,68.07
2019-02-22T08:04:26.504Z,67.84
2019-02-22T08:06:55.153Z,67.35
2019-02-22T08:09:23.777Z,67.56
2019-02-22T08:11:58.624Z,66.94
2019-02-22T08:14:27.257Z,66.27
2019-02-22T08:16:55.816Z,65.77
2019-02-22T08:19:24.444Z,65.46
2019-02-22T08:21:53.008Z,65.29
2019-02-22T08:24:21.828Z,65.39
2019-02-22T08:26:50.662Z,65.41
2019-02-22T08:29:19.277Z,65.27
2019-02-22T08:31:48.110Z,65.24
2019-02-22T08:34:16.714Z,65.23
2019-02-22T08:36:45.340Z,65.47
2019-02-22T08:39:13.905Z,64.96
2019-02-22T08:41:42.481Z,64.55
2019-02-22T08:44:11.107Z,64.67
2019-02-22T08:46:39.929Z,64.71
2019-02-22T08:49:08.423Z,64.83
2019-02-22T08:51:36.998Z,64.49
2019-02-22T08:54:05.660Z,64.23
2019-02-22T08:56:34.318Z,64.16
2019-02-22T08:59:02.934Z,63.74
2019-02-22T09:01:31.715Z,63.59
2019-02-22T09:04:00.349Z,62.11
2019-02-22T09:06:28.910Z,61.75
2019-02-22T09:08:57.433Z,60.94
2019-02-22T09:11:26.063Z,61.24
2019-02-22T09:13:54.632Z,61.64
2019-02-22T09:16:23.508Z,63.27
2019-02-22T09:18:52.151Z,64.85
2019-02-22T09:21:20.776Z,67.32
2019-02-22T09:23:49.306Z,69.80
2019-02-22T09:26:17.934Z,72.25
2019-02-22T09:28:46.584Z,72.60
2019-02-22T09:31:15.179Z,72.72
2019-02-22T09:33:43.738Z,72.94
2019-02-22T09:36:12.301Z,72.65
2019-02-22T09:38:41.059Z,73.00
2019-02-22T09:41:09.672Z,72.58
2019-02-22T09:43:38.161Z,71.70
2019-02-22T09:46:06.780Z,72.24
2019-02-22T09:48:35.546Z,72.18
2019-02-22T09:51:04.114Z,74.30
2019-02-22T09:53:32.617Z,75.94
2019-02-22T09:56:01.186Z,76.45
2019-02-22T09:58:29.844Z,77.39
2019-02-22T10:00:58.406Z,77.35
2019-02-22T10:03:26.873Z,77.22
2019-02-22T10:05:55.716Z,77.86
2019-02-22T10:08:24.315Z,79.28
2019-02-22T10:10:52.862Z,78.18
2019-02-22T10:13:21.392Z,80.25
2019-02-22T10:15:50.021Z,82.44
2019-02-22T10:18:18.655Z,82.34
2019-02-22T10:20:47.337Z,83.49
2019-02-22T10:23:15.851Z,82.97
2019-02-22T10:25:44.492Z,84.42
2019-02-22T10:28:17.868Z,84.75
2019-02-22T10:30:43.454Z,85.41
2019-02-22T10:33:12.085Z,86.15
2019-02-22T10:35:40.744Z,87.81
2019-02-22T10:38:09.317Z,86.94
2019-02-22T10:40:39.316Z,85.13
2019-02-22T10:43:08.185Z,85.59
2019-02-22T10:45:37.109Z,87.39
2019-02-22T10:48:05.857Z,85.91
2019-02-22T10:50:34.524Z,85.32
2019-02-22T10:53:03.175Z,86.33
2019-02-22T10:55:31.802Z,85.43
2019-02-22T10:58:00.627Z,85.28
2019-02-22T11:00:29.244Z,87.29
2019-02-22T11:02:57.880Z,88.44
2019-02-22T11:05:26.487Z,87.93
2019-02-22T11:07:55.012Z,86.82
2019-02-22T11:10:23.651Z,84.03
2019-02-22T11:12:52.301Z,84.46
2019-02-22T11:15:20.962Z,83.93
2019-02-22T11:17:49.587Z,83.80
2019-02-22T11:20:18.432Z,84.97
2019-02-22T11:22:47.046Z,85.25
2019-02-22T11:25:16.639Z,86.26
2019-02-22T11:27:45.427Z,86.68
2019-02-22T11:30:15.267Z,85.51
2019-02-22T11:32:43.753Z,85.31
2019-02-22T11:35:12.419Z,87.72
2019-02-22T11:37:41.047Z,86.09
2019-02-22T11:40:11.704Z,86.01
2019-02-22T11:42:40.522Z,87.78
2019-02-22T11:45:10.332Z,86.58
2019-02-22T11:47:38.969Z,85.22
2019-02-22T11:50:11.423Z,85.38
2019-02-22T11:52:40.053Z,87.57
2019-02-22T11:55:09.889Z,87.02
2019-02-22T11:57:38.644Z,86.22
2019-02-22T12:00:11.363Z,85.12
2019-02-22T12:02:40.051Z,83.96
2019-02-22T12:05:08.645Z,84.26
2019-02-22T12:07:37.125Z,82.75
2019-02-22T12:10:07.855Z,82.29
2019-02-22T12:12:36.568Z,81.95
2019-02-22T12:15:08.293Z,84.31
2019-02-22T12:17:36.793Z,82.41
2019-02-22T12:20:06.773Z,83.48
2019-02-22T12:22:35.395Z,83.57
2019-02-22T12:25:04.621Z,82.54
2019-02-22T12:27:33.196Z,81.61
2019-02-22T12:30:01.753Z,81.54
2019-02-22T12:32:30.301Z,80.34
2019-02-22T12:34:58.919Z,80.60
2019-02-22T12:37:27.543Z,81.03
2019-02-22T12:39:56.277Z,83.55
2019-02-22T12:42:25.151Z,83.94
2019-02-22T12:45:02.554Z,84.39
2019-02-22T12:47:24.065Z,84.22
2019-02-22T12:49:52.660Z,84.22
2019-02-22T12:52:21.154Z,85.77
2019-02-22T12:54:49.710Z,87.72
2019-02-22T12:57:18.378Z,86.40
2019-02-22T12:59:46.926Z,85.84
2019-02-22T13:02:15.494Z,85.88
2019-02-22T13:04:44.080Z,85.77
2019-02-22T13:07:12.717Z,86.62
2019-02-22T13:09:41.289Z,85.90
2019-02-22T13:12:14.109Z,86.38
2019-02-22T13:14:40.388Z,85.79
2019-02-22T13:17:09.090Z,86.97
2019-02-22T13:19:38.004Z,86.61
2019-02-22T13:22:06.627Z,88.23
2019-02-22T13:24:35.184Z,88.99
2019-02-22T13:27:04.001Z,89.79
2019-02-22T13:29:32.564Z,93.40
2019-02-22T13:32:01.182Z,94.27
2019-02-22T13:34:29.790Z,95.15
2019-02-22T13:36:58.348Z,95.98
2019-02-22T13:39:26.979Z,96.11
2019-02-22T13:41:55.815Z,96.49
2019-02-22T13:44:24.520Z,98.70
2019-02-22T13:46:53.094Z,97.61
2019-02-22T13:49:21.903Z,98.36
2019-02-22T13:51:50.531Z,99.20
2019-02-22T13:54:19.094Z,98.56
2019-02-22T13:56:48.153Z,100.00
2019-02-22T13:59:16.811Z,100.00
2019-02-22T14:01:45.402Z,100.00
2019-02-22T14:04:14.068Z,100.00
2019-02-22T14:06:42.705Z,100.00
2019-02-22T14:09:11.306Z,100.00
2019-02-22T14:11:40.805Z,100.00
2019-02-22T14:14:09.363Z,100.00
2019-02-22T14:16:38.010Z,100.00
2019-02-22T14:19:06.699Z,100.00
2019-02-22T14:21:35.234Z,100.00
2019-02-22T14:24:03.785Z,99.69
2019-02-22T14:26:32.471Z,100.00
2019-02-22T14:29:01.038Z,100.00
2019-02-22T14:31:29.656Z,100.00
2019-02-22T14:33:58.212Z,99.73
2019-02-22T14:36:29.054Z,98.60
2019-02-22T14:38:57.119Z,97.59
2019-02-22T14:41:27.937Z,95.75
2019-02-22T14:43:56.200Z,94.46
2019-02-22T14:46:26.167Z,95.53
2019-02-22T14:48:54.891Z,94.24
2019-02-22T14:51:23.511Z,94.66
2019-02-22T14:53:52.350Z,94.18
2019-02-22T14:56:20.830Z,94.34
2019-02-22T14:58:49.459Z,95.55
2019-02-22T15:01:18.094Z,97.17
2019-02-22T15:03:46.977Z,97.83
2019-02-22T15:06:15.744Z,99.17
2019-02-22T15:08:44.311Z,99.17
2019-02-22T15:11:12.958Z,99.02
2019-02-22T15:13:41.508Z,100.00
2019-02-22T15:16:28.089Z,100.00
2019-02-22T15:18:56.711Z,100.00
2019-02-22T15:21:25.338Z,100.00
2019-02-22T15:23:54.191Z,100.00
2019-02-22T15:26:22.814Z,100.00
2019-02-22T15:28:51.343Z,100.00
2019-02-22T15:31:20.083Z,100.00
2019-02-22T15:33:48.633Z,100.00
2019-02-22T15:36:17.234Z,100.00
2019-02-22T15:38:45.856Z,100.00
2019-02-22T15:41:14.478Z,100.00
2019-02-22T15:43:43.349Z,100.00
2019-02-22T15:46:12.609Z,100.00
2019-02-22T15:48:41.295Z,100.00
2019-02-22T15:51:10.062Z,100.00
2019-02-22T15:53:38.604Z,100.00
2019-02-22T15:56:07.252Z,100.00
2019-02-22T15:58:35.918Z,100.00
2019-02-22T16:01:04.746Z,100.00
2019-02-22T16:03:50.359Z,100.00
2019-02-22T16:06:19.012Z,100.00
2019-02-22T16:08:47.644Z,100.00
2019-02-22T16:11:16.497Z,100.00
2019-02-22T16:13:45.149Z,100.00
2019-02-22T16:16:22.960Z,100.00
2019-02-22T16:18:44.187Z,100.00
2019-02-22T16:21:12.674Z,100.00
2019-02-22T16:23:41.297Z,99.63
2019-02-22T16:26:10.040Z,100.00
2019-02-22T16:28:38.660Z,100.00
2019-02-22T16:31:07.564Z,99.46
2019-02-22T16:33:36.216Z,99.88
2019-02-22T16:36:04.713Z,99.60
2019-02-22T16:38:33.259Z,97.57
2019-02-22T16:41:01.925Z,99.07
2019-02-22T16:43:30.494Z,98.84
2019-02-22T16:45:59.119Z,98.78
2019-02-22T16:48:28.011Z,99.80
2019-02-22T16:50:56.654Z,99.64
2019-02-22T16:53:25.206Z,100.00
2019-02-22T16:55:53.760Z,100.00
2019-02-22T16:58:22.310Z,100.00
2019-02-22T17:00:50.947Z,100.00
2019-02-22T17:03:19.620Z,100.00
2019-02-22T17:05:48.185Z,100.00
2019-02-22T17:08:16.753Z,100.00
2019-02-22T17:10:45.558Z,100.00
2019-02-22T17:13:14.196Z,100.00
2019-02-22T17:15:42.843Z,100.00
2019-02-22T17:18:11.514Z,100.00
2019-02-22T17:20:40.014Z,100.00
2019-02-22T17:23:08.587Z,100.00
2019-02-22T17:25:37.252Z,100.00
2019-02-22T17:28:05.798Z,99.77
2019-02-22T17:30:34.325Z,100.00
2019-02-22T17:33:02.929Z,100.00
2019-02-22T17:35:31.604Z,100.00
2019-02-22T17:38:00.144Z,100.00
2019-02-22T17:40:31.271Z,100.00
2019-02-22T17:42:59.905Z,100.00
2019-02-22T17:45:28.537Z,99.75
2019-02-22T17:47:57.269Z,100.00
2019-02-22T17:50:25.851Z,99.80
2019-02-22T17:52:54.398Z,100.00
2019-02-22T17:55:22.945Z,100.00
2019-02-22T17:57:51.503Z,100.00
2019-02-22T18:00:21.758Z,100.00
2019-02-22T18:02:50.438Z,100.00
2019-02-22T18:05:18.993Z,100.00
2019-02-22T18:07:47.561Z,100.00
2019-02-22T18:10:16.228Z,100.00
2019-02-22T18:12:44.811Z,100.00
2019-02-22T18:15:17.610Z,100.00
2019-02-22T18:17:47.286Z,100.00
2019-02-22T18:20:15.900Z,100.00
2019-02-22T18:22:44.482Z,100.00
2019-02-22T18:25:13.525Z,100.00
2019-02-22T18:27:42.089Z,100.00
2019-02-22T18:30:19.594Z,100.00
2019-02-22T18:32:48.378Z,100.00
2019-02-22T18:35:17.277Z,100.00
2019-02-22T18:37:45.886Z,100.00
2019-02-22T18:40:22.147Z,100.00
2019-02-22T18:42:51.009Z,100.00
2019-02-22T18:45:19.651Z,100.00
2019-02-22T18:47:48.204Z,100.00
2019-02-22T18:50:16.828Z,100.00
2019-02-22T18:52:45.415Z,100.00
2019-02-22T18:55:14.039Z,100.00
2019-02-22T18:57:42.655Z,100.00
2019-02-22T19:00:21.178Z,100.00
2019-02-22T19:02:50.274Z,100.00
2019-02-22T19:05:18.927Z,100.00
2019-02-22T19:07:47.566Z,100.00
2019-02-22T19:10:19.951Z,100.00
2019-02-22T19:12:48.510Z,100.00
2019-02-22T19:15:17.242Z,100.00
2019-02-22T19:17:46.036Z,100.00
2019-02-22T19:20:16.571Z,100.00
2019-02-22T19:22:45.199Z,100.00
2019-02-22T19:25:13.873Z,100.00
2019-02-22T19:27:42.500Z,100.00
2019-02-22T19:30:19.332Z,100.00
2019-02-22T19:32:48.113Z,100.00
2019-02-22T19:35:16.707Z,100.00
2019-02-22T19:37:45.620Z,100.00
2019-02-22T19:40:20.245Z,100.00
2019-02-22T19:42:48.824Z,100.00
2019-02-22T19:45:17.623Z,100.00
2019-02-22T19:47:46.258Z,100.00
2019-02-22T19:50:15.197Z,100.00
2019-02-22T19:52:43.817Z,100.00
2019-02-22T19:55:16.996Z,100.00
2019-02-22T19:57:45.556Z,100.00
2019-02-22T20:00:18.861Z,100.00
2019-02-22T20:02:47.471Z,100.00
2019-02-22T20:05:16.312Z,100.00
2019-02-22T20:07:45.004Z,100.00
2019-02-22T20:10:18.177Z,100.00
2019-02-22T20:12:46.300Z,100.00
2019-02-22T20:15:18.697Z,100.00
2019-02-22T20:17:53.770Z,100.00
2019-02-22T20:20:18.677Z,100.00
2019-02-22T20:22:47.564Z,100.00
2019-02-22T20:25:16.270Z,100.00
2019-02-22T20:27:44.901Z,100.00
2019-02-22T20:30:17.755Z,100.00
2019-02-22T20:32:46.348Z,100.00
2019-02-22T20:35:17.617Z,100.00
2019-02-22T20:37:52.550Z,100.00
2019-02-22T20:40:16.573Z,100.00
2019-02-22T20:42:45.202Z,100.00
2019-02-22T20:45:14.082Z,100.00
2019-02-22T20:47:42.718Z,100.00
2019-02-22T20:50:12.550Z,100.00
2019-02-22T20:52:41.220Z,100.00
2019-02-22T20:55:10.750Z,100.00
2019-02-22T20:57:39.310Z,100.00
2019-02-22T21:00:25.116Z,100.00
2019-02-22T21:02:53.681Z,100.00
2019-02-22T21:05:22.538Z,100.00
2019-02-22T21:07:51.094Z,100.00
2019-02-22T21:10:20.940Z,100.00
2019-02-22T21:12:49.838Z,100.00
2019-02-22T21:15:18.408Z,100.00
2019-02-22T21:17:46.994Z,100.00
2019-02-22T21:20:20.766Z,100.00
2019-02-22T21:22:49.403Z,100.00
2019-02-22T21:25:18.029Z,100.00
2019-02-22T21:27:46.634Z,100.00
2019-02-22T21:30:16.862Z,100.00
2019-02-22T21:32:45.500Z,100.00
2019-02-22T21:35:14.169Z,100.00
2019-02-22T21:37:43.609Z,100.00
2019-02-22T21:40:13.145Z,100.00
2019-02-22T21:42:41.754Z,100.00
2019-02-22T21:45:15.170Z,100.00
2019-02-22T21:47:54.435Z,100.00
2019-02-22T21:50:15.476Z,100.00
2019-02-22T21:52:43.861Z,100.00
2019-02-22T21:55:16.109Z,100.00
2019-02-22T21:57:44.693Z,100.00
2019-02-22T22:00:18.567Z,100.00
2019-02-22T22:02:47.190Z,100.00
2019-02-22T22:05:15.949Z,100.00
2019-02-22T22:07:44.499Z,100.00
2019-02-22T22:10:13.209Z,100.00
2019-02-22T22:12:42.052Z,100.00
2019-02-22T22:15:12.607Z,100.00
2019-02-22T22:17:41.243Z,100.00
2019-02-22T22:20:11.392Z,100.00
2019-02-22T22:22:40.102Z,100.00
2019-02-22T22:25:10.719Z,100.00
2019-02-22T22:27:39.486Z,100.00
2019-02-22T22:30:10.778Z,100.00
2019-02-22T22:32:39.399Z,100.00
2019-02-22T22:35:14.092Z,100.00
2019-02-22T22:37:42.724Z,100.00
2019-02-22T22:40:11.652Z,100.00
2019-02-22T22:42:40.313Z,100.00
2019-02-22T22:45:13.169Z,100.00
2019-02-22T22:47:44.695Z,100.00
2019-02-22T22:50:17.243Z,100.00
2019-02-22T22:52:45.961Z,100.00
2019-02-22T22:55:14.636Z,100.00
2019-02-22T22:57:43.198Z,100.00
2019-02-22T23:00:40.179Z,100.00
2019-02-22T23:03:08.891Z,100.00
2019-02-22T23:05:37.510Z,100.00
2019-02-22T23:08:06.174Z,100.00
2019-02-22T23:10:34.803Z,100.00
2019-02-22T23:13:03.378Z,100.00
2019-02-22T23:15:32.157Z,100.00
2019-02-22T23:18:00.705Z,100.00
2019-02-22T23:20:29.258Z,100.00
2019-02-22T23:22:57.919Z,100.00
2019-02-22T23:25:26.540Z,100.00
2019-02-22T23:27:55.155Z,100.00
2019-02-22T23:30:23.681Z,100.00
2019-02-22T23:32:52.309Z,100.00
2019-02-22T23:35:21.336Z,100.00
2019-02-22T23:37:49.952Z,100.00
2019-02-22T23:40:18.442Z,100.00
2019-02-22T23:42:47.116Z,100.00
2019-02-22T23:45:15.793Z,100.00
2019-02-22T23:47:44.352Z,100.00
2019-02-22T23:50:12.977Z,100.00
2019-02-22T23:52:41.662Z,100.00
2019-02-22T23:55:10.233Z,100.00
2019-02-22T23:57:38.871Z,100.00
